createdAt,value
2023-02-22T00:00:44.282Z,92.20
2023-02-22T00:03:17.724Z,91.80
2023-02-22T00:05:47.463Z,92.30
2023-02-22T00:08:17.771Z,92.20
2023-02-22T00:10:45.081Z,92.30
2023-02-22T00:13:14.785Z,92.50
2023-02-22T00:15:42.235Z,92.00
2023-02-22T00:18:12.569Z,92.00
2023-02-22T00:20:40.141Z,92.40
2023-02-22T00:23:09.037Z,92.60
2023-02-22T00:25:36.381Z,92.50
2023-02-22T00:28:05.235Z,91.50
2023-02-22T00:30:33.785Z,91.20
2023-02-22T00:33:01.200Z,90.80
2023-02-22T00:35:29.868Z,90.90
2023-02-22T00:37:59.425Z,90.90
2023-02-22T00:40:31.117Z,91.40
2023-02-22T00:42:59.110Z,90.90
2023-02-22T00:45:27.180Z,91.40
2023-02-22T00:47:57.413Z,92.50
2023-02-22T00:50:25.023Z,93.40
2023-02-22T00:52:52.159Z,93.50
2023-02-22T00:55:22.218Z,94.00
2023-02-22T00:57:50.183Z,94.40
2023-02-22T01:00:28.427Z,93.70
2023-02-22T01:03:13.931Z,93.50
2023-02-22T01:05:50.189Z,94.40
2023-02-22T01:08:17.569Z,94.60
2023-02-22T01:10:44.744Z,92.70
2023-02-22T01:13:14.970Z,92.70
2023-02-22T01:15:42.980Z,93.20
2023-02-22T01:18:10.324Z,93.80
2023-02-22T01:20:41.666Z,94.90
2023-02-22T01:23:13.172Z,95.30
2023-02-22T01:25:40.232Z,93.20
2023-02-22T01:28:08.359Z,93.40
2023-02-22T01:30:36.332Z,92.60
2023-02-22T01:33:04.630Z,93.10
2023-02-22T01:35:34.477Z,92.80
2023-02-22T01:38:01.496Z,91.50
2023-02-22T01:40:31.545Z,91.20
2023-02-22T01:43:00.763Z,91.50
2023-02-22T01:45:30.916Z,91.40
2023-02-22T01:48:04.920Z,92.10
2023-02-22T01:50:33.334Z,91.20
2023-02-22T01:53:00.749Z,92.80
2023-02-22T01:55:28.206Z,93.50
2023-02-22T01:57:55.268Z,93.80
2023-02-22T02:00:24.595Z,93.90
2023-02-22T02:02:59.152Z,93.30
2023-02-22T02:05:31.500Z,93.70
2023-02-22T02:07:59.591Z,93.40
2023-02-22T02:10:27.265Z,92.80
2023-02-22T02:12:54.456Z,93.10
2023-02-22T02:15:25.527Z,94.90
2023-02-22T02:17:53.555Z,95.40
2023-02-22T02:20:44.568Z,95.60
2023-02-22T02:23:36.740Z,95.60
2023-02-22T02:26:22.312Z,96.80
2023-02-22T02:29:11.896Z,97.00
2023-02-22T02:32:16.077Z,96.90
2023-02-22T02:34:53.943Z,97.10
2023-02-22T02:38:09.341Z,96.80
2023-02-22T02:40:47.465Z,97.10
2023-02-22T02:43:31.756Z,96.60
2023-02-22T02:46:19.434Z,96.30
2023-02-22T02:48:54.833Z,96.00
2023-02-22T02:51:24.609Z,96.80
2023-02-22T02:53:51.679Z,96.70
2023-02-22T02:56:18.961Z,96.10
2023-02-22T02:58:51.079Z,95.70
2023-02-22T03:01:41.182Z,95.90
2023-02-22T03:07:35.778Z,95.50
2023-02-22T03:10:34.471Z,96.10
2023-02-22T03:13:06.070Z,96.20
2023-02-22T03:15:42.472Z,96.60
2023-02-22T03:18:17.864Z,95.40
2023-02-22T03:21:07.306Z,95.90
2023-02-22T03:23:47.069Z,95.80
2023-02-22T03:26:19.588Z,95.70
2023-02-22T03:28:47.360Z,95.10
2023-02-22T03:31:24.600Z,95.80
2023-02-22T03:34:24.634Z,96.40
2023-02-22T03:37:18.649Z,96.40
2023-02-22T03:39:46.876Z,96.30
2023-02-22T03:42:24.724Z,96.90
2023-02-22T03:44:52.823Z,97.90
2023-02-22T03:47:23.483Z,97.30
2023-02-22T03:50:07.069Z,98.60
2023-02-22T03:52:35.647Z,98.10
2023-02-22T03:55:03.585Z,98.30
2023-02-22T03:57:33.942Z,98.10
2023-02-22T04:00:07.634Z,98.20
2023-02-22T04:02:40.418Z,97.60
2023-02-22T04:05:15.775Z,98.60
2023-02-22T04:07:42.873Z,98.40
2023-02-22T04:10:15.485Z,98.10
2023-02-22T04:12:43.998Z,98.50
2023-02-22T04:15:18.930Z,97.60
2023-02-22T04:17:46.623Z,97.90
2023-02-22T04:20:15.582Z,98.20
2023-02-22T04:22:52.797Z,98.80
2023-02-22T04:25:20.696Z,98.70
2023-02-22T04:27:48.118Z,98.90
2023-02-22T04:30:18.762Z,99.40
2023-02-22T04:32:46.110Z,99.90
2023-02-22T04:35:14.995Z,99.10
2023-02-22T04:37:43.194Z,99.20
2023-02-22T04:40:12.060Z,99.10
2023-02-22T04:42:39.905Z,99.50
2023-02-22T04:45:08.719Z,99.90
2023-02-22T04:47:39.314Z,99.90
2023-02-22T04:50:07.081Z,99.90
2023-02-22T04:52:35.128Z,99.90
2023-02-22T04:55:02.604Z,99.90
2023-02-22T04:57:29.998Z,99.90
2023-02-22T04:59:57.384Z,99.90
2023-02-22T05:02:25.430Z,99.90
2023-02-22T05:04:52.640Z,99.90
2023-02-22T05:07:22.061Z,99.90
2023-02-22T05:09:49.072Z,99.90
2023-02-22T05:12:16.142Z,99.90
2023-02-22T05:14:44.674Z,99.90
2023-02-22T05:17:14.375Z,99.90
2023-02-22T05:19:42.207Z,99.90
2023-02-22T05:22:09.546Z,99.90
2023-02-22T05:24:36.660Z,99.90
2023-02-22T05:27:03.944Z,99.90
2023-02-22T05:29:31.188Z,99.90
2023-02-22T05:31:58.523Z,99.90
2023-02-22T05:34:25.705Z,99.90
2023-02-22T05:36:53.066Z,99.90
2023-02-22T05:39:21.459Z,99.90
2023-02-22T05:41:48.496Z,99.10
2023-02-22T05:44:15.772Z,99.40
2023-02-22T05:46:46.099Z,99.80
2023-02-22T05:49:13.384Z,99.20
2023-02-22T05:51:40.712Z,99.90
2023-02-22T05:54:08.125Z,99.90
2023-02-22T05:56:36.451Z,99.90
2023-02-22T05:59:03.877Z,99.90
2023-02-22T06:01:31.054Z,99.90
2023-02-22T06:03:58.256Z,99.90
2023-02-22T06:06:25.598Z,99.90
2023-02-22T06:08:52.650Z,99.90
2023-02-22T06:11:19.984Z,99.90
2023-02-22T06:13:51.807Z,99.90
2023-02-22T06:16:21.345Z,99.90
2023-02-22T06:18:48.944Z,99.90
2023-02-22T06:21:17.853Z,99.90
2023-02-22T06:23:45.087Z,99.90
2023-02-22T06:26:12.461Z,99.90
2023-02-22T06:28:39.845Z,99.90
2023-02-22T06:31:06.932Z,99.90
2023-02-22T06:33:34.064Z,99.90
2023-02-22T06:36:01.236Z,99.90
2023-02-22T06:38:28.363Z,99.90
2023-02-22T06:40:55.605Z,99.90
2023-02-22T06:43:24.894Z,99.90
2023-02-22T06:45:52.537Z,99.90
2023-02-22T06:48:19.657Z,99.90
2023-02-22T06:50:46.767Z,99.90
2023-02-22T06:53:13.863Z,99.90
2023-02-22T06:55:41.162Z,99.90
2023-02-22T06:58:08.510Z,99.90
2023-02-22T07:00:35.637Z,99.90
2023-02-22T07:03:03.867Z,99.90
2023-02-22T07:05:31.261Z,99.90
2023-02-22T07:08:04.394Z,99.90
2023-02-22T07:10:31.979Z,99.90
2023-02-22T07:12:59.402Z,99.90
2023-02-22T07:15:28.030Z,99.90
2023-02-22T07:17:55.641Z,99.90
2023-02-22T07:20:24.844Z,99.90
2023-02-22T07:22:52.168Z,99.90
2023-02-22T07:25:19.924Z,99.90
2023-02-22T07:27:47.371Z,99.90
2023-02-22T07:30:26.088Z,99.90
2023-02-22T07:32:54.804Z,99.90
2023-02-22T07:35:28.546Z,99.90
2023-02-22T07:37:56.215Z,99.90
2023-02-22T07:40:24.395Z,99.90
2023-02-22T07:42:57.691Z,99.90
2023-02-22T07:45:26.633Z,99.90
2023-02-22T07:47:53.942Z,99.90
2023-02-22T07:50:24.835Z,99.90
2023-02-22T07:53:41.845Z,99.90
2023-02-22T07:55:44.072Z,99.90
2023-02-22T07:58:22.542Z,99.90
2023-02-22T08:00:51.881Z,99.90
2023-02-22T08:03:23.719Z,99.90
2023-02-22T08:09:00.216Z,99.90
2023-02-22T08:11:27.738Z,99.90
2023-02-22T08:13:55.130Z,99.90
2023-02-22T08:16:26.904Z,99.90
2023-02-22T08:22:30.109Z,99.90
2023-02-22T08:24:57.747Z,99.90
2023-02-22T08:27:29.872Z,99.90
2023-02-22T08:30:06.080Z,99.90
2023-02-22T08:32:55.595Z,99.90
2023-02-22T08:35:33.212Z,99.90
2023-02-22T08:38:14.408Z,99.90
2023-02-22T08:41:50.876Z,99.90
2023-02-22T08:44:35.063Z,99.90
2023-02-22T08:47:09.181Z,99.90
2023-02-22T08:52:49.402Z,99.90
2023-02-22T09:16:55.324Z,99.90
2023-02-22T10:02:42.998Z,99.30
2023-02-22T10:23:36.254Z,98.40
2023-02-22T11:48:39.501Z,94.40
2023-02-22T11:52:12.890Z,97.60
2023-02-22T11:55:36.499Z,97.20
2023-02-22T11:58:40.935Z,97.00
2023-02-22T12:01:30.275Z,97.80
2023-02-22T12:04:16.944Z,97.10
2023-02-22T12:06:56.850Z,97.20
2023-02-22T12:09:35.941Z,96.70
2023-02-22T12:12:26.340Z,97.10
2023-02-22T12:15:02.375Z,97.20
2023-02-22T12:17:48.166Z,97.60
2023-02-22T12:20:27.019Z,98.50
2023-02-22T12:23:06.993Z,98.60
2023-02-22T12:25:58.936Z,99.90
2023-02-22T12:28:35.341Z,98.00
2023-02-22T12:31:07.761Z,97.10
2023-02-22T12:34:08.298Z,96.40
2023-02-22T12:36:59.003Z,96.30
2023-02-22T12:39:53.176Z,95.90
2023-02-22T12:42:45.380Z,96.90
2023-02-22T12:45:17.666Z,95.10
2023-02-22T12:47:49.910Z,95.50
2023-02-22T12:50:23.168Z,96.20
2023-02-22T12:53:03.104Z,94.80
2023-02-22T12:55:56.687Z,96.70
2023-02-22T12:58:34.156Z,98.90
2023-02-22T13:01:22.073Z,99.90
2023-02-22T13:03:52.208Z,99.90
2023-02-22T13:06:39.854Z,99.90
2023-02-22T13:09:49.742Z,99.90
2023-02-22T13:12:58.631Z,99.90
2023-02-22T13:15:36.922Z,99.90
2023-02-22T13:18:45.256Z,99.90
2023-02-22T13:21:16.138Z,99.90
2023-02-22T13:24:18.596Z,99.90
2023-02-22T13:26:56.647Z,99.90
2023-02-22T13:29:42.681Z,99.90
2023-02-22T13:32:28.998Z,99.90
2023-02-22T13:35:07.636Z,99.90
2023-02-22T13:37:39.368Z,99.90
2023-02-22T13:40:17.908Z,99.90
2023-02-22T13:42:51.852Z,99.90
2023-02-22T13:45:35.180Z,99.90
2023-02-22T13:48:28.221Z,99.90
2023-02-22T13:56:05.152Z,99.90
2023-02-22T14:03:25.951Z,99.80
2023-02-22T14:11:33.693Z,94.40
2023-02-22T14:14:33.516Z,89.10
2023-02-22T14:17:49.836Z,92.80
2023-02-22T14:20:22.216Z,94.10
2023-02-22T14:22:51.158Z,95.30
2023-02-22T14:25:38.592Z,94.30
2023-02-22T14:28:07.998Z,95.70
2023-02-22T14:31:07.978Z,97.30
2023-02-22T14:34:46.636Z,96.60
2023-02-22T14:37:27.342Z,96.00
2023-02-22T14:40:13.341Z,94.50
2023-02-22T14:42:51.228Z,93.10
2023-02-22T14:45:28.449Z,91.90
2023-02-22T14:48:01.382Z,93.80
2023-02-22T14:50:52.777Z,92.90
2023-02-22T14:53:25.503Z,91.20
2023-02-22T14:56:07.821Z,89.20
2023-02-22T14:58:35.293Z,91.10
2023-02-22T15:01:31.197Z,87.90
2023-02-22T15:04:38.714Z,88.40
2023-02-22T15:07:27.919Z,84.70
2023-02-22T15:10:18.378Z,86.90
2023-02-22T15:12:52.947Z,85.60
2023-02-22T15:15:22.902Z,87.30
2023-02-22T15:17:55.637Z,86.50
2023-02-22T15:20:24.357Z,88.10
2023-02-22T15:22:51.826Z,86.60
2023-02-22T15:25:28.141Z,88.10
2023-02-22T15:27:55.829Z,84.40
2023-02-22T15:30:26.816Z,81.80
2023-02-22T15:33:04.388Z,81.20
2023-02-22T15:35:33.712Z,81.00
2023-02-22T15:38:02.276Z,81.80
2023-02-22T15:40:33.364Z,83.20
2023-02-22T15:43:02.483Z,80.90
2023-02-22T15:45:30.226Z,76.20
2023-02-22T15:47:58.825Z,75.50
2023-02-22T15:50:31.602Z,80.60
2023-02-22T15:53:04.101Z,78.00
2023-02-22T15:55:41.791Z,76.90
2023-02-22T15:58:12.586Z,76.40
2023-02-22T16:00:45.273Z,74.00
2023-02-22T16:03:45.083Z,77.00
2023-02-22T16:06:45.707Z,77.80
2023-02-22T16:09:13.775Z,75.30
2023-02-22T16:11:45.845Z,74.20
2023-02-22T16:14:30.790Z,74.20
2023-02-22T16:17:35.721Z,73.40
2023-02-22T16:20:29.997Z,75.30
2023-02-22T16:22:57.821Z,74.40
2023-02-22T16:25:31.164Z,77.40
2023-02-22T16:28:01.883Z,76.60
2023-02-22T16:30:36.642Z,75.60
2023-02-22T16:33:16.890Z,76.90
2023-02-22T16:35:52.164Z,75.30
2023-02-22T16:38:19.971Z,72.70
2023-02-22T16:40:55.387Z,71.30
2023-02-22T16:43:25.519Z,72.20
2023-02-22T16:45:55.754Z,67.30
2023-02-22T16:48:27.310Z,66.80
2023-02-22T16:50:55.456Z,61.90
2023-02-22T16:53:24.304Z,64.00
2023-02-22T16:55:57.880Z,65.10
2023-02-22T16:58:28.063Z,66.30
2023-02-22T17:00:57.583Z,60.60
2023-02-22T17:03:25.153Z,57.10
2023-02-22T17:05:52.714Z,56.50
2023-02-22T17:08:20.042Z,56.20
2023-02-22T17:10:47.433Z,58.40
2023-02-22T17:13:23.018Z,57.90
2023-02-22T17:15:54.908Z,56.60
2023-02-22T17:18:23.264Z,57.00
2023-02-22T17:20:51.420Z,56.80
2023-02-22T17:23:18.758Z,55.30
2023-02-22T17:25:53.848Z,57.20
2023-02-22T17:28:21.974Z,57.40
2023-02-22T17:30:49.553Z,58.60
2023-02-22T17:33:18.522Z,58.10
2023-02-22T17:35:47.261Z,58.00
2023-02-22T17:38:18.573Z,58.50
2023-02-22T17:40:52.140Z,60.00
2023-02-22T17:43:22.370Z,61.50
2023-02-22T17:45:49.576Z,61.70
2023-02-22T17:48:17.463Z,62.10
2023-02-22T17:50:45.185Z,59.80
2023-02-22T17:53:12.861Z,64.00
2023-02-22T17:55:40.838Z,63.50
2023-02-22T17:58:08.590Z,63.60
2023-02-22T18:00:36.571Z,64.70
2023-02-22T18:03:06.156Z,61.80
2023-02-22T18:05:34.251Z,61.90
2023-02-22T18:08:01.849Z,61.30
2023-02-22T18:10:29.222Z,63.60
2023-02-22T18:12:57.000Z,62.30
2023-02-22T18:15:28.298Z,62.80
2023-02-22T18:17:56.218Z,62.20
2023-02-22T18:20:31.343Z,63.60
2023-02-22T18:22:59.361Z,66.50
2023-02-22T18:25:26.652Z,66.80
2023-02-22T18:27:55.086Z,69.60
2023-02-22T18:30:24.107Z,68.80
2023-02-22T18:32:51.516Z,67.10
2023-02-22T18:35:18.834Z,68.10
2023-02-22T18:37:46.327Z,68.60
2023-02-22T18:40:13.686Z,68.10
2023-02-22T18:42:40.976Z,71.30
2023-02-22T18:45:08.339Z,70.00
2023-02-22T18:47:43.013Z,71.50
2023-02-22T18:50:10.839Z,71.70
2023-02-22T18:52:47.586Z,71.00
2023-02-22T18:55:15.786Z,69.70
2023-02-22T18:57:43.794Z,68.00
2023-02-22T19:00:12.908Z,71.10
2023-02-22T19:02:43.638Z,69.40
2023-02-22T19:05:11.974Z,66.90
2023-02-22T19:07:39.376Z,69.10
2023-02-22T19:10:07.385Z,73.70
2023-02-22T19:12:34.832Z,77.70
2023-02-22T19:15:02.183Z,79.80
2023-02-22T19:17:32.308Z,83.10
2023-02-22T19:19:59.370Z,84.50
2023-02-22T19:22:26.623Z,85.70
2023-02-22T19:24:54.347Z,87.00
2023-02-22T19:27:21.681Z,87.40
2023-02-22T19:29:49.521Z,86.00
2023-02-22T19:32:17.709Z,85.50
2023-02-22T19:34:45.230Z,85.10
2023-02-22T19:37:15.492Z,82.00
2023-02-22T19:39:42.738Z,78.40
2023-02-22T19:42:12.661Z,75.60
2023-02-22T19:44:40.347Z,73.80
2023-02-22T19:47:10.210Z,76.80
2023-02-22T19:49:37.950Z,72.80
2023-02-22T19:52:06.830Z,73.80
2023-02-22T19:54:34.447Z,67.40
2023-02-22T19:57:06.205Z,65.50
2023-02-22T19:59:33.541Z,63.20
2023-02-22T20:02:00.933Z,64.60
2023-02-22T20:04:30.834Z,62.90
2023-02-22T20:06:58.158Z,64.20
2023-02-22T20:09:42.660Z,64.90
2023-02-22T20:12:10.053Z,66.00
2023-02-22T20:14:38.894Z,63.70
2023-02-22T20:17:07.837Z,63.20
2023-02-22T20:19:37.438Z,62.60
2023-02-22T20:22:05.037Z,61.50
2023-02-22T20:24:32.138Z,61.40
2023-02-22T20:26:59.465Z,62.60
2023-02-22T20:29:30.220Z,58.00
2023-02-22T20:31:58.960Z,59.60
2023-02-22T20:34:38.702Z,60.20
2023-02-22T20:37:06.629Z,58.50
2023-02-22T20:39:34.419Z,51.50
2023-02-22T20:42:03.601Z,53.50
2023-02-22T20:44:30.910Z,52.20
2023-02-22T20:46:58.215Z,50.20
2023-02-22T20:49:26.281Z,53.60
2023-02-22T20:52:01.581Z,54.30
2023-02-22T20:54:29.142Z,52.10
2023-02-22T20:56:56.407Z,50.00
2023-02-22T20:59:23.629Z,51.90
2023-02-22T21:01:53.241Z,54.90
2023-02-22T21:04:22.295Z,54.90
2023-02-22T21:06:49.626Z,53.90
2023-02-22T21:09:20.541Z,51.50
2023-02-22T21:11:47.852Z,50.20
2023-02-22T21:14:18.807Z,50.70
2023-02-22T21:16:47.458Z,51.80
2023-02-22T21:19:17.160Z,52.70
2023-02-22T21:21:44.260Z,54.00
2023-02-22T21:24:11.971Z,52.80
2023-02-22T21:26:39.627Z,53.70
2023-02-22T21:29:06.943Z,51.20
2023-02-22T21:31:34.604Z,52.40
2023-02-22T21:34:02.255Z,52.50
2023-02-22T21:36:29.582Z,52.50
2023-02-22T21:38:58.412Z,54.40
2023-02-22T21:41:30.665Z,54.70
2023-02-22T21:43:58.442Z,53.50
2023-02-22T21:46:26.475Z,54.10
2023-02-22T21:48:53.696Z,52.90
2023-02-22T21:51:25.725Z,54.20
2023-02-22T21:53:54.558Z,54.70
2023-02-22T21:56:34.354Z,56.00
2023-02-22T21:59:03.817Z,55.90
2023-02-22T22:01:36.284Z,56.20
2023-02-22T22:04:03.986Z,57.80
2023-02-22T22:06:32.503Z,57.10
2023-02-22T22:09:05.083Z,58.40
2023-02-22T22:11:32.450Z,59.60
2023-02-22T22:14:00.723Z,59.50
2023-02-22T22:16:30.756Z,59.10
2023-02-22T22:18:58.005Z,60.20
2023-02-22T22:21:25.604Z,58.40
2023-02-22T22:23:56.222Z,58.20
2023-02-22T22:26:24.849Z,59.40
2023-02-22T22:28:56.386Z,59.00
2023-02-22T22:31:24.797Z,58.90
2023-02-22T22:33:52.321Z,59.40
2023-02-22T22:36:21.501Z,58.00
2023-02-22T22:38:48.912Z,58.20
2023-02-22T22:41:17.418Z,58.90
2023-02-22T22:43:48.399Z,58.70
2023-02-22T22:46:17.205Z,58.60
2023-02-22T22:48:47.247Z,58.40
2023-02-22T22:51:18.771Z,58.10
2023-02-22T22:53:47.153Z,58.40
2023-02-22T22:56:19.304Z,57.60
2023-02-22T22:58:51.952Z,58.80
2023-02-22T23:01:20.798Z,56.90
2023-02-22T23:03:55.292Z,58.10
2023-02-22T23:06:26.951Z,59.70
2023-02-22T23:09:12.205Z,58.90
2023-02-22T23:11:46.461Z,60.50
2023-02-22T23:14:24.403Z,60.00
2023-02-22T23:16:53.457Z,60.10
2023-02-22T23:19:20.671Z,60.00
2023-02-22T23:21:48.473Z,59.80
2023-02-22T23:24:19.065Z,60.50
2023-02-22T23:26:49.154Z,60.90
2023-02-22T23:29:17.684Z,62.70
2023-02-22T23:31:48.297Z,63.00
2023-02-22T23:34:21.431Z,65.10
2023-02-22T23:36:54.285Z,64.80
2023-02-22T23:39:22.107Z,65.50
2023-02-22T23:41:53.606Z,66.10
2023-02-22T23:44:21.991Z,67.50
2023-02-22T23:46:49.706Z,69.00
2023-02-22T23:49:20.813Z,69.80
2023-02-22T23:51:48.232Z,70.30
2023-02-22T23:54:19.311Z,71.50
2023-02-22T23:57:02.747Z,72.30
2023-02-22T23:59:31.091Z,73.50
